Time;durP1;ratioP1;P1;durP2;ratioP2;P2;SDS_P1;SDS_P2;PMS_P1;PMS_P2;Temp;Humidity;BMP_temperature;BMP_pressure;BME280_temperature;BME280_humidity;BME280_pressure;Samples;Min_cycle;Max_cycle;Signal;HPM_P1;HPM_P2
2023/11/03 00:01:11;;;;;;;10.93;6.30;;;;;;;13.22;100.00;99305.28;6210944;23;20009;-81
2023/11/03 00:03:37;;;;;;;13.80;6.25;;;;;;;13.22;100.00;99299.13;6210706;23;20027;-81
2023/11/03 00:06:03;;;;;;;11.32;5.95;;;;;;;13.06;100.00;99282.13;6210796;23;20013;-80
2023/11/03 00:08:30;;;;;;;10.52;5.95;;;;;;;13.08;100.00;99255.91;6210790;23;20016;-80
2023/11/03 00:10:58;;;;;;;8.52;4.88;;;;;;;12.97;100.00;99257.66;6208954;23;20012;-80
2023/11/03 00:13:23;;;;;;;12.15;6.40;;;;;;;13.00;100.00;99269.75;6210901;23;20036;-80
2023/11/03 00:15:49;;;;;;;11.10;5.90;;;;;;;13.24;100.00;99283.63;6209155;23;20015;-80
2023/11/03 00:18:14;;;;;;;9.50;5.72;;;;;;;13.41;100.00;99286.97;6209048;23;20012;-81
2023/11/03 00:20:40;;;;;;;9.60;4.55;;;;;;;13.18;100.00;99282.75;6208500;23;20043;-80
2023/11/03 00:23:07;;;;;;;10.50;5.47;;;;;;;13.40;100.00;99280.03;6208858;23;20452;-80
2023/11/03 00:25:33;;;;;;;11.27;5.50;;;;;;;13.45;100.00;99285.41;6209062;23;20005;-80
2023/11/03 00:27:58;;;;;;;11.00;5.18;;;;;;;13.43;100.00;99255.38;6210424;23;20362;-79
2023/11/03 00:30:23;;;;;;;8.70;4.78;;;;;;;13.55;100.00;99279.31;6210210;23;20005;-80
2023/11/03 00:32:49;;;;;;;10.80;5.20;;;;;;;13.46;100.00;99283.53;6209989;23;20000;-79
2023/11/03 00:35:14;;;;;;;9.63;5.55;;;;;;;13.25;100.00;99288.69;6208702;23;20004;-80
2023/11/03 00:37:40;;;;;;;9.95;5.53;;;;;;;13.31;100.00;99291.44;6208601;23;20350;-80
2023/11/03 00:40:11;;;;;;;12.55;6.03;;;;;;;13.11;100.00;99270.63;6209936;23;20013;-80
2023/11/03 00:42:37;;;;;;;11.77;5.70;;;;;;;13.24;100.00;99292.44;6208438;23;20402;-81
2023/11/03 00:45:04;;;;;;;10.10;5.20;;;;;;;13.27;100.00;99286.56;6210338;23;20019;-80
2023/11/03 00:47:30;;;;;;;10.75;5.93;;;;;;;13.06;100.00;99268.72;6210364;23;20009;-80
2023/11/03 00:49:56;;;;;;;13.27;5.50;;;;;;;12.87;100.00;99249.53;6178380;23;20017;-80
2023/11/03 00:52:22;;;;;;;9.13;5.35;;;;;;;13.24;100.00;99271.03;6178517;23;20005;-80
2023/11/03 00:54:47;;;;;;;8.23;5.30;;;;;;;13.26;100.00;99289.53;6179514;23;20009;-80
2023/11/03 00:57:13;;;;;;;9.18;5.20;;;;;;;13.28;100.00;99252.59;6179785;23;20005;-80
2023/11/03 00:59:39;;;;;;;8.15;4.88;;;;;;;13.39;100.00;99251.59;6179943;23;20031;-80
2023/11/03 01:02:05;;;;;;;9.30;5.53;;;;;;;13.31;100.00;99267.34;6178659;23;20028;-80
2023/11/03 01:04:31;;;;;;;10.70;5.90;;;;;;;13.45;100.00;99260.50;6180003;23;20051;-80
2023/11/03 01:06:56;;;;;;;9.75;5.47;;;;;;;13.73;100.00;99269.22;6178626;23;20421;-80
2023/11/03 01:09:22;;;;;;;10.30;6.07;;;;;;;13.76;100.00;99266.03;6178494;23;20045;-80
2023/11/03 01:11:47;;;;;;;9.27;5.13;;;;;;;13.96;100.00;99268.03;6178249;23;20009;-81
2023/11/03 01:14:13;;;;;;;10.65;5.75;;;;;;;13.94;100.00;99295.09;6179978;23;20394;-80
2023/11/03 01:16:41;;;;;;;8.15;5.03;;;;;;;13.93;100.00;99300.69;6178057;23;20008;-80
2023/11/03 01:19:09;;;;;;;10.55;5.45;;;;;;;13.81;100.00;99290.19;6180552;23;20362;-80
2023/11/03 01:21:39;;;;;;;11.27;5.67;;;;;;;14.04;100.00;99311.22;6179962;23;20001;-81
2023/11/03 01:24:06;;;;;;;9.77;5.45;;;;;;;14.12;100.00;99284.97;6178600;23;20486;-80
2023/11/03 01:26:33;;;;;;;9.60;5.50;;;;;;;13.91;100.00;99273.34;6178248;23;20055;-80
2023/11/03 01:28:59;;;;;;;9.75;5.22;;;;;;;14.02;100.00;99297.28;6179749;23;20475;-80
2023/11/03 01:31:24;;;;;;;9.38;5.38;;;;;;;14.07;100.00;99302.66;6177952;23;20079;-80
2023/11/03 01:33:50;;;;;;;9.05;5.40;;;;;;;14.02;100.00;99278.50;6179764;23;20008;-80
2023/11/03 01:36:15;;;;;;;10.85;5.22;;;;;;;13.64;100.00;99253.63;6178656;23;20056;-81
2023/11/03 01:38:41;;;;;;;9.40;5.47;;;;;;;13.56;100.00;99240.72;6178263;23;20359;-80
2023/11/03 01:41:08;;;;;;;10.35;5.40;;;;;;;13.41;100.00;99264.75;6179488;23;20005;-80
2023/11/03 01:43:35;;;;;;;10.63;5.75;;;;;;;13.60;100.00;99268.63;6178448;23;20359;-80
2023/11/03 01:46:02;;;;;;;11.00;5.40;;;;;;;13.79;100.00;99295.00;6179502;23;20028;-80
2023/11/03 01:48:32;;;;;;;11.32;6.20;;;;;;;13.53;100.00;99294.03;6189310;23;20082;-79
2023/11/03 01:51:02;;;;;;;12.82;7.43;;;;;;;14.05;100.00;99302.09;6208227;23;20016;-80
2023/11/03 01:53:31;;;;;;;12.73;8.07;;;;;;;13.98;100.00;99296.19;6209654;23;20000;-80
2023/11/03 01:55:58;;;;;;;11.40;7.65;;;;;;;13.54;100.00;99277.69;6210123;23;20005;-80
2023/11/03 01:58:24;;;;;;;11.98;6.82;;;;;;;13.55;100.00;99299.94;6209858;23;20011;-80
2023/11/03 02:00:50;;;;;;;11.05;6.80;;;;;;;13.58;100.00;99276.09;6209802;23;20032;-81
2023/11/03 02:03:15;;;;;;;13.60;6.68;;;;;;;13.52;100.00;99295.88;6207918;23;20008;-80
2023/11/03 02:05:42;;;;;;;12.15;6.55;;;;;;;13.52;100.00;99287.06;6211017;23;20024;-80
2023/11/03 02:08:08;;;;;;;10.43;6.22;;;;;;;13.34;100.00;99269.50;6211950;23;20004;-81
2023/11/03 02:10:33;;;;;;;10.90;6.30;;;;;;;13.48;100.00;99276.03;6211701;23;20008;-80
2023/11/03 02:12:59;;;;;;;12.00;6.05;;;;;;;13.50;100.00;99275.78;6211455;23;20011;-80
2023/11/03 02:15:25;;;;;;;9.95;6.00;;;;;;;13.44;100.00;99267.72;6211844;23;20016;-80
2023/11/03 02:17:51;;;;;;;12.57;5.85;;;;;;;13.32;100.00;99279.66;6209795;23;20005;-80
2023/11/03 02:20:16;;;;;;;12.52;6.75;;;;;;;13.30;100.00;99277.25;6209924;23;20005;-80
2023/11/03 02:22:42;;;;;;;10.50;6.18;;;;;;;13.35;100.00;99281.84;6209865;23;20335;-80
2023/11/03 02:25:08;;;;;;;9.82;5.30;;;;;;;13.35;100.00;99297.91;6209841;23;20032;-80
2023/11/03 02:27:34;;;;;;;10.30;5.35;;;;;;;13.36;100.00;99300.34;6210422;23;20358;-80
2023/11/03 02:29:59;;;;;;;11.80;5.35;;;;;;;13.80;100.00;99321.53;6212125;23;20012;-80
2023/11/03 02:32:26;;;;;;;8.93;4.75;;;;;;;13.39;100.00;99288.31;6209847;23;20080;-80
2023/11/03 02:34:51;;;;;;;8.93;4.93;;;;;;;13.31;100.00;99288.78;6210198;23;20462;-81
2023/11/03 02:37:16;;;;;;;10.65;5.57;;;;;;;13.46;100.00;99294.22;6211680;23;20039;-80
2023/11/03 02:39:42;;;;;;;11.10;6.15;;;;;;;13.46;100.00;99283.53;6210044;23;20000;-80
2023/11/03 02:42:07;;;;;;;8.52;4.80;;;;;;;13.49;100.00;99288.38;6211117;23;20022;-80
2023/11/03 02:44:33;;;;;;;12.88;5.65;;;;;;;13.26;100.00;99301.03;6212346;23;20005;-80
2023/11/03 02:46:59;;;;;;;9.57;5.35;;;;;;;13.19;100.00;99303.09;6210352;23;20055;-80
2023/11/03 02:49:24;;;;;;;10.35;6.30;;;;;;;13.08;100.00;99288.03;6211242;23;20020;-80
2023/11/03 02:51:50;;;;;;;9.07;4.68;;;;;;;13.18;100.00;99298.03;6211343;23;20009;-80
2023/11/03 02:54:16;;;;;;;10.60;5.57;;;;;;;12.86;100.00;99283.53;6211234;23;20000;-80
2023/11/03 02:56:41;;;;;;;11.98;5.75;;;;;;;12.76;100.00;99270.03;6209608;23;20009;-79
2023/11/03 02:59:08;;;;;;;12.38;5.32;;;;;;;12.56;100.00;99238.53;6211535;23;20011;-79
2023/11/03 03:01:36;;;;;;;10.07;5.55;;;;;;;12.99;100.00;99308.25;6211165;23;20005;-82
2023/11/03 03:04:03;;;;;;;12.13;5.97;;;;;;;13.48;100.00;99299.34;6209643;23;20000;-80
2023/11/03 03:06:28;;;;;;;10.20;5.57;;;;;;;13.41;100.00;99286.19;6209899;23;20026;-80
2023/11/03 03:08:54;;;;;;;10.70;5.95;;;;;;;13.63;100.00;99305.63;6209622;23;20438;-80
2023/11/03 03:11:19;;;;;;;9.10;5.68;;;;;;;13.42;100.00;99282.41;6211197;23;20015;-80
2023/11/03 03:13:45;;;;;;;9.63;5.82;;;;;;;12.97;100.00;99287.09;6209830;23;20004;-80
2023/11/03 03:16:10;;;;;;;9.40;5.20;;;;;;;12.89;100.00;99284.09;6211061;23;20012;-80
2023/11/03 03:18:36;;;;;;;10.77;5.50;;;;;;;12.82;100.00;99286.97;6211084;23;20142;-80
2023/11/03 03:21:01;;;;;;;13.02;6.05;;;;;;;12.82;100.00;99295.78;6211264;23;20004;-79
2023/11/03 03:23:27;;;;;;;10.82;5.93;;;;;;;12.98;100.00;99277.22;6209585;23;20013;-80
2023/11/03 03:25:53;;;;;;;12.95;6.18;;;;;;;12.72;100.00;99274.28;6211162;23;20442;-80
2023/11/03 03:28:18;;;;;;;10.65;5.75;;;;;;;12.90;100.00;99272.34;6211236;23;20059;-80
2023/11/03 03:30:43;;;;;;;9.55;5.65;;;;;;;12.68;100.00;99277.72;6209486;23;20019;-80
2023/11/03 03:33:09;;;;;;;12.70;6.65;;;;;;;12.61;100.00;99267.22;6209448;23;20077;-80
2023/11/03 03:35:35;;;;;;;11.32;6.20;;;;;;;12.56;100.00;99273.31;6211191;23;20016;-80
2023/11/03 03:38:00;;;;;;;11.85;5.90;;;;;;;12.61;100.00;99269.91;6210760;23;20004;-80
2023/11/03 03:40:26;;;;;;;10.38;6.22;;;;;;;12.31;100.00;99257.81;6210694;23;20065;-79
2023/11/03 03:42:51;;;;;;;12.52;6.75;;;;;;;12.24;100.00;99246.50;6209346;23;20101;-80
2023/11/03 03:45:17;;;;;;;11.98;6.97;;;;;;;12.20;100.00;99240.84;6211086;23;20004;-80
2023/11/03 03:47:43;;;;;;;11.75;7.30;;;;;;;12.19;100.00;99238.41;6209150;23;20004;-80
2023/11/03 03:50:09;;;;;;;11.30;6.93;;;;;;;12.21;100.00;99228.28;6211178;23;20016;-81
2023/11/03 03:52:34;;;;;;;19.90;9.52;;;;;;;12.07;100.00;99235.88;6208898;23;20186;-80
2023/11/03 03:55:00;;;;;;;28.17;11.75;;;;;;;11.96;100.00;99205.53;6209080;23;20112;-81
2023/11/03 03:57:26;;;;;;;36.40;12.32;;;;;;;11.86;100.00;99208.06;6210942;23;20386;-81
2023/11/03 03:59:51;;;;;;;62.30;18.40;;;;;;;11.77;100.00;99218.38;6210909;23;20058;-80
2023/11/03 04:02:16;;;;;;;108.03;27.52;;;;;;;11.59;100.00;99219.47;6210641;23;20054;-80
2023/11/03 04:04:43;;;;;;;136.20;30.92;;;;;;;11.69;100.00;99228.66;6208937;23;20150;-79
2023/11/03 04:07:09;;;;;;;164.40;32.83;;;;;;;11.94;100.00;99247.75;6210467;23;20005;-80
2023/11/03 04:09:37;;;;;;;167.68;36.38;;;;;;;11.86;100.00;99234.78;6210912;23;20008;-80
2023/11/03 04:12:03;;;;;;;241.00;43.42;;;;;;;11.72;100.00;99214.81;6208644;23;20013;-80
2023/11/03 04:14:28;;;;;;;218.65;43.80;;;;;;;11.80;100.00;99220.53;6209083;23;20070;-80
2023/11/03 04:16:53;;;;;;;245.77;43.45;;;;;;;12.12;100.00;99243.97;6208690;23;20431;-82
2023/11/03 04:19:19;;;;;;;243.30;43.45;;;;;;;11.88;100.00;99211.28;6210832;23;20078;-80
2023/11/03 04:21:44;;;;;;;284.88;41.80;;;;;;;11.85;100.00;99227.84;6210597;23;20008;-80
2023/11/03 04:24:10;;;;;;;166.75;36.40;;;;;;;11.87;100.00;99231.06;6209013;23;20135;-81
2023/11/03 04:26:35;;;;;;;161.65;35.35;;;;;;;11.66;100.00;99180.03;6210878;23;20047;-80
2023/11/03 04:29:01;;;;;;;177.15;34.00;;;;;;;11.62;100.00;99189.59;6209200;23;20032;-79
2023/11/03 04:31:26;;;;;;;154.27;33.92;;;;;;;11.56;100.00;99198.59;6208807;23;20012;-80
2023/11/03 04:33:52;;;;;;;160.68;35.95;;;;;;;11.40;100.00;99178.91;6210235;23;20008;-80
2023/11/03 04:36:18;;;;;;;138.43;34.95;;;;;;;11.49;100.00;99208.66;6208683;23;20008;-80
2023/11/03 04:38:43;;;;;;;143.40;32.25;;;;;;;11.59;100.00;99227.47;6208716;23;20079;-80
2023/11/03 04:41:09;;;;;;;140.77;32.65;;;;;;;11.73;100.00;99225.28;6210078;23;20032;-81
2023/11/03 04:43:40;;;;;;;167.93;33.40;;;;;;;11.65;100.00;99223.81;6210294;23;20397;-80
2023/11/03 04:46:08;;;;;;;132.95;29.13;;;;;;;11.76;100.00;99218.63;6208966;23;20335;-81
2023/11/03 04:48:34;;;;;;;136.67;34.10;;;;;;;11.56;100.00;99187.91;6210764;23;20500;-80
2023/11/03 04:50:59;;;;;;;133.32;33.58;;;;;;;11.74;100.00;99215.38;6209109;23;20243;-80
2023/11/03 04:53:25;;;;;;;141.48;33.92;;;;;;;11.91;100.00;99210.00;6210269;23;20350;-80
2023/11/03 04:55:50;;;;;;;118.60;31.27;;;;;;;12.11;100.00;99198.75;6210846;23;20058;-80
2023/11/03 04:58:17;;;;;;;115.22;28.83;;;;;;;12.12;100.00;99203.06;6210801;23;20009;-80
2023/11/03 05:00:42;;;;;;;97.53;26.95;;;;;;;12.25;100.00;99208.00;6212670;23;20131;-80
2023/11/03 05:03:07;;;;;;;111.47;30.10;;;;;;;12.02;100.00;99191.19;6219560;23;20020;-80
2023/11/03 05:05:33;;;;;;;105.85;24.70;;;;;;;12.00;100.00;99206.66;6218630;23;20383;-81
2023/11/03 05:07:58;;;;;;;99.20;27.15;;;;;;;12.02;100.00;99212.56;6218351;23;20008;-81
2023/11/03 05:10:24;;;;;;;92.72;26.92;;;;;;;12.19;100.00;99211.69;6219460;23;20036;-81
2023/11/03 05:12:50;;;;;;;96.22;25.23;;;;;;;11.98;100.00;99224.81;6218154;23;20001;-82
2023/11/03 05:15:15;;;;;;;87.65;23.88;;;;;;;11.79;100.00;99226.94;6217531;23;20008;-81
2023/11/03 05:17:41;;;;;;;107.90;27.42;;;;;;;11.96;100.00;99248.28;6219669;23;20005;-80
2023/11/03 05:20:08;;;;;;;108.13;27.10;;;;;;;11.95;100.00;99236.00;6218058;23;20400;-80
2023/11/03 05:22:34;;;;;;;131.60;28.75;;;;;;;11.71;100.00;99213.19;6214514;23;20054;-80
2023/11/03 05:25:00;;;;;;;108.55;25.50;;;;;;;11.89;100.00;99250.38;6214414;23;20009;-80
2023/11/03 05:27:26;;;;;;;95.93;28.58;;;;;;;12.29;100.00;99249.22;6214737;23;20007;-80
2023/11/03 05:29:51;;;;;;;112.20;29.92;;;;;;;11.96;100.00;99231.47;6214315;23;20001;-83
2023/11/03 05:32:17;;;;;;;104.00;26.67;;;;;;;11.78;100.00;99233.34;6213955;23;20040;-82
2023/11/03 05:34:42;;;;;;;101.85;24.83;;;;;;;11.79;100.00;99239.47;6213864;23;20100;-82
2023/11/03 05:37:10;;;;;;;105.60;24.58;;;;;;;11.87;100.00;99255.13;6214018;23;20009;-82
2023/11/03 05:39:37;;;;;;;110.55;24.83;;;;;;;11.87;100.00;99260.47;6213515;23;20047;-82
2023/11/03 05:42:04;;;;;;;109.38;25.58;;;;;;;11.92;100.00;99244.50;6214066;23;20020;-83
2023/11/03 05:44:30;;;;;;;94.17;25.20;;;;;;;11.83;100.00;99240.63;6214625;23;20058;-82
2023/11/03 05:46:56;;;;;;;106.32;24.08;;;;;;;11.77;100.00;99244.25;6212100;23;20013;-83
2023/11/03 05:49:21;;;;;;;80.32;22.83;;;;;;;11.74;100.00;99237.56;6211345;23;20012;-82
2023/11/03 05:51:47;;;;;;;74.45;23.05;;;;;;;11.61;100.00;99221.91;6211618;23;20012;-82
2023/11/03 05:54:12;;;;;;;73.38;23.88;;;;;;;11.94;100.00;99247.75;6211070;23;20012;-82
2023/11/03 05:56:37;;;;;;;74.28;22.73;;;;;;;11.89;100.00;99220.97;6211155;23;20016;-82
2023/11/03 05:59:03;;;;;;;77.75;21.50;;;;;;;12.00;100.00;99238.72;6211099;23;20087;-82
2023/11/03 06:01:32;;;;;;;68.95;23.60;;;;;;;12.13;100.00;99223.38;6211166;23;20011;-82
2023/11/03 06:04:01;;;;;;;60.92;22.70;;;;;;;12.23;100.00;99240.34;6210808;23;20005;-83
2023/11/03 06:06:27;;;;;;;60.38;20.33;;;;;;;12.36;100.00;99241.00;6210868;23;20005;-82
2023/11/03 06:08:53;;;;;;;65.45;21.08;;;;;;;12.01;100.00;99234.19;6213005;23;20008;-82
2023/11/03 06:11:18;;;;;;;59.78;23.17;;;;;;;12.11;100.00;99239.66;6212775;23;20039;-82
2023/11/03 06:13:44;;;;;;;79.25;23.98;;;;;;;12.44;100.00;99224.50;6210574;23;20335;-80
2023/11/03 06:16:09;;;;;;;68.72;24.50;;;;;;;12.48;100.00;99224.81;6210153;23;20016;-81
2023/11/03 06:18:35;;;;;;;59.90;22.80;;;;;;;12.26;100.00;99217.66;6210436;23;20404;-82
2023/11/03 06:21:00;;;;;;;65.97;24.50;;;;;;;12.24;100.00;99241.16;6211731;23;20004;-82
2023/11/03 06:23:26;;;;;;;72.32;25.83;;;;;;;12.23;100.00;99223.50;6209923;23;20020;-81
2023/11/03 06:25:52;;;;;;;54.80;23.60;;;;;;;12.27;100.00;99225.41;6209822;23;20012;-82
2023/11/03 06:28:17;;;;;;;58.53;21.98;;;;;;;12.23;100.00;99237.66;6210563;23;20004;-82
2023/11/03 06:30:43;;;;;;;62.47;25.35;;;;;;;12.36;100.00;99233.81;6209944;23;20011;-82
2023/11/03 06:33:08;;;;;;;58.45;21.20;;;;;;;12.35;100.00;99216.13;6211584;23;20005;-81
2023/11/03 06:35:34;;;;;;;63.15;19.60;;;;;;;12.34;100.00;99235.94;6211737;23;20004;-83
2023/11/03 06:37:59;;;;;;;55.05;20.45;;;;;;;12.43;100.00;99228.25;6209714;23;20028;-82
2023/11/03 06:40:25;;;;;;;56.20;20.83;;;;;;;12.35;100.00;99226.84;6210202;23;20004;-83
2023/11/03 06:42:51;;;;;;;69.90;24.67;;;;;;;12.38;100.00;99221.00;6209939;23;20514;-83
2023/11/03 06:45:17;;;;;;;59.25;21.75;;;;;;;12.13;100.00;99183.28;6211256;23;20071;-83
2023/11/03 06:47:42;;;;;;;73.15;35.22;;;;;;;12.22;100.00;99181.78;6211179;23;20009;-83
2023/11/03 06:50:09;;;;;;;48.00;20.70;;;;;;;12.73;100.00;99195.66;6209947;23;20150;-82
2023/11/03 06:52:35;;;;;;;62.40;23.88;;;;;;;12.57;100.00;99201.94;6209962;23;20028;-82
2023/11/03 06:55:01;;;;;;;52.35;24.02;;;;;;;12.64;100.00;99181.13;6209563;23;20027;-82
2023/11/03 06:57:26;;;;;;;57.35;23.70;;;;;;;12.85;100.00;99190.94;6211244;23;20052;-82
2023/11/03 06:59:52;;;;;;;61.83;30.48;;;;;;;12.86;100.00;99181.03;6209485;23;20047;-82
2023/11/03 07:02:17;;;;;;;54.55;25.35;;;;;;;12.77;100.00;99148.59;6209662;23;20509;-82
2023/11/03 07:04:43;;;;;;;48.50;19.35;;;;;;;13.34;100.00;99167.75;6211040;23;20413;-83
2023/11/03 07:07:09;;;;;;;43.97;17.08;;;;;;;13.01;100.00;99158.94;6209506;23;20042;-84
2023/11/03 07:09:34;;;;;;;43.03;21.48;;;;;;;12.95;100.00;99149.25;6209983;23;20091;-82
2023/11/03 07:12:02;;;;;;;47.00;20.08;;;;;;;13.12;100.00;99160.63;6209929;23;20012;-83
2023/11/03 07:14:28;;;;;;;;;;;;;;;12.86;100.00;99189.88;6210792;23;20027;-83
2023/11/03 07:16:55;;;;;;;50.38;18.10;;;;;;;12.74;100.00;99189.22;6209227;23;20318;-83
2023/11/03 07:19:21;;;;;;;53.75;20.90;;;;;;;12.72;100.00;99202.06;6209269;23;20508;-80
2023/11/03 07:21:57;;;;;;;46.58;18.33;;;;;;;12.86;100.00;99205.94;6210278;23;20004;-80
2023/11/03 07:24:22;;;;;;;53.83;19.98;;;;;;;12.59;100.00;99183.75;6210463;23;20353;-80
2023/11/03 07:26:51;;;;;;;56.60;20.33;;;;;;;12.73;100.00;99221.59;6208963;23;20075;-82
2023/11/03 07:29:17;;;;;;;62.70;20.20;;;;;;;12.69;100.00;99226.66;6207891;23;20012;-81
2023/11/03 07:31:42;;;;;;;57.65;20.88;;;;;;;12.53;100.00;99184.78;6209960;23;20067;-82
2023/11/03 07:34:08;;;;;;;63.20;20.95;;;;;;;13.25;100.00;99203.00;6208516;23;20012;-81
2023/11/03 07:36:34;;;;;;;68.18;21.90;;;;;;;13.75;100.00;99205.47;6209347;23;20618;-82
2023/11/03 07:39:01;;;;;;;67.35;21.15;;;;;;;12.81;100.00;99168.44;6208655;23;20016;-80
2023/11/03 07:41:26;;;;;;;66.05;21.75;;;;;;;12.91;100.00;99186.41;6208476;23;20001;-79
2023/11/03 07:43:52;;;;;;;69.55;22.10;;;;;;;12.85;100.00;99160.69;6208916;23;20063;-80
2023/11/03 07:46:19;;;;;;;85.35;25.45;;;;;;;13.02;100.00;99155.22;6210629;23;20389;-80
2023/11/03 07:48:45;;;;;;;74.60;22.48;;;;;;;13.49;100.00;99183.13;6210260;23;20008;-82
2023/11/03 07:51:11;;;;;;;66.55;21.10;;;;;;;13.68;100.00;99184.28;6208761;23;20020;-82
2023/11/03 07:53:36;;;;;;;69.65;22.45;;;;;;;13.49;100.00;99159.81;6208878;23;20004;-81
2023/11/03 07:56:02;;;;;;;65.07;21.05;;;;;;;13.40;100.00;99151.47;6208913;23;20013;-82
2023/11/03 07:58:28;;;;;;;59.55;21.23;;;;;;;13.58;100.00;99163.59;6209461;23;20443;-81
2023/11/03 08:00:57;;;;;;;65.57;21.15;;;;;;;13.63;100.00;99155.59;6208693;23;20079;-81
2023/11/03 08:03:24;;;;;;;65.75;22.85;;;;;;;13.54;100.00;99151.78;6210379;23;20004;-82
2023/11/03 08:05:50;;;;;;;70.35;22.75;;;;;;;13.73;100.00;99132.56;6210277;23;20104;-83
2023/11/03 08:08:15;;;;;;;72.95;24.35;;;;;;;13.72;100.00;99106.88;6210831;23;20009;-82
2023/11/03 08:10:41;;;;;;;81.13;24.75;;;;;;;13.79;100.00;99140.41;6209155;23;20458;-82
2023/11/03 08:13:07;;;;;;;76.55;25.58;;;;;;;13.48;100.00;99118.00;6209085;23;20008;-81
2023/11/03 08:15:32;;;;;;;83.57;26.20;;;;;;;13.62;100.00;99126.38;6208736;23;20004;-82
2023/11/03 08:17:58;;;;;;;80.55;23.95;;;;;;;13.60;100.00;99121.28;6209286;23;20016;-81
2023/11/03 08:20:24;;;;;;;70.95;24.10;;;;;;;13.48;100.00;99131.41;6208350;23;20079;-83
2023/11/03 08:22:51;;;;;;;69.50;22.77;;;;;;;13.55;100.00;99136.53;6210979;23;20067;-82
2023/11/03 08:25:16;;;;;;;78.55;23.25;;;;;;;13.48;100.00;99131.41;6209149;23;20342;-82
2023/11/03 08:27:41;;;;;;;94.35;25.45;;;;;;;13.73;100.00;99145.97;6209072;23;20036;-83
2023/11/03 08:30:10;;;;;;;92.95;25.08;;;;;;;13.80;100.00;99117.06;6211191;23;20103;-81
2023/11/03 08:32:36;;;;;;;89.97;25.50;;;;;;;14.29;100.00;99140.78;6210894;23;20062;-84
2023/11/03 08:35:05;;;;;;;94.57;27.02;;;;;;;14.34;100.00;99131.94;6209187;23;20009;-83
2023/11/03 08:37:33;;;;;;;93.57;26.58;;;;;;;14.29;100.00;99119.31;6209050;23;20135;-82
2023/11/03 08:40:01;;;;;;;91.45;24.27;;;;;;;14.40;100.00;99142.38;6209265;23;20013;-81
2023/11/03 08:42:27;;;;;;;;;;;;;;;14.52;100.00;99144.03;6211260;23;20116;-84
2023/11/03 08:44:52;;;;;;;103.55;27.35;;;;;;;14.40;100.00;99115.56;6210299;23;19919;-83
2023/11/03 08:47:19;;;;;;;96.57;28.17;;;;;;;14.40;100.00;99099.47;6209010;23;20005;-82
2023/11/03 08:49:44;;;;;;;108.07;29.50;;;;;;;14.44;100.00;99095.22;6210315;23;20022;-82
2023/11/03 08:52:12;;;;;;;127.35;39.30;;;;;;;14.61;100.00;99105.69;6208794;23;20087;-83
2023/11/03 08:54:38;;;;;;;122.53;36.65;;;;;;;14.60;100.00;99079.13;6208725;23;20009;-81
2023/11/03 08:57:05;;;;;;;107.85;29.38;;;;;;;14.84;100.00;99082.84;6210153;23;20011;-82
2023/11/03 08:59:31;;;;;;;105.20;29.30;;;;;;;14.92;100.00;99061.91;6208728;23;20019;-82
2023/11/03 09:01:57;;;;;;;110.93;30.08;;;;;;;15.51;100.00;99073.78;6208415;23;20008;-83
2023/11/03 09:04:22;;;;;;;89.63;25.88;;;;;;;16.20;100.00;99080.97;6208479;23;20335;-83
2023/11/03 09:06:48;;;;;;;91.00;27.08;;;;;;;16.47;100.00;99075.13;6208325;23;20412;-82
2023/11/03 09:09:14;;;;;;;99.53;27.05;;;;;;;16.37;100.00;99064.44;6208366;23;20008;-82
2023/11/03 09:11:41;;;;;;;101.68;27.95;;;;;;;16.26;100.00;99082.53;6210359;23;20039;-83
2023/11/03 09:14:07;;;;;;;109.13;27.97;;;;;;;16.02;100.00;99042.09;6210164;23;20027;-80
2023/11/03 09:16:34;;;;;;;107.25;32.15;;;;;;;16.39;100.00;99038.03;6209888;23;20343;-81
2023/11/03 09:19:00;;;;;;;89.40;24.95;;;;;;;16.43;100.00;99052.53;6208939;23;20024;-83
2023/11/03 09:21:26;;;;;;;97.03;26.10;;;;;;;16.37;100.00;99058.25;6210190;23;20004;-81
2023/11/03 09:23:51;;;;;;;101.00;28.88;;;;;;;16.14;100.00;99049.00;6208593;23;20008;-82
2023/11/03 09:26:17;;;;;;;89.57;25.85;;;;;;;16.25;100.00;99031.72;6209920;23;20018;-83
2023/11/03 09:28:44;;;;;;;96.05;26.35;;;;;;;16.12;100.00;99037.72;6210448;23;20114;-83
2023/11/03 09:31:10;;;;;;;98.57;27.08;;;;;;;16.37;100.00;99015.19;6210161;23;20425;-83
2023/11/03 09:33:36;;;;;;;99.68;28.33;;;;;;;16.72;100.00;99016.75;6210071;23;20008;-83
2023/11/03 09:36:03;;;;;;;93.85;27.40;;;;;;;17.02;100.00;99010.25;6210210;23;20005;-83
2023/11/03 09:38:28;;;;;;;90.95;25.30;;;;;;;16.80;100.00;99024.19;6210108;23;20004;-82
2023/11/03 09:40:54;;;;;;;89.60;27.48;;;;;;;17.14;100.00;99020.63;6208405;23;20059;-83
2023/11/03 09:43:21;;;;;;;89.28;25.83;;;;;;;17.28;100.00;99018.03;6208388;23;20009;-83
2023/11/03 09:45:46;;;;;;;90.18;26.55;;;;;;;17.11;100.00;99020.41;6208348;23;20016;-83
2023/11/03 09:48:12;;;;;;;85.00;25.25;;;;;;;16.98;100.00;99000.31;6209848;23;20020;-83
2023/11/03 09:50:38;;;;;;;91.18;26.00;;;;;;;17.15;100.00;98987.19;6208195;23;20013;-83
2023/11/03 09:53:18;;;;;;;92.38;25.90;;;;;;;17.46;100.00;98990.28;6208552;23;20015;-81
2023/11/03 09:55:44;;;;;;;83.22;24.98;;;;;;;17.22;100.00;98959.91;6208568;23;20044;-82
2023/11/03 09:58:09;;;;;;;84.55;26.33;;;;;;;17.64;98.76;98950.94;6208285;23;20358;-82
2023/11/03 10:00:37;;;;;;;92.47;27.45;;;;;;;17.97;97.94;98961.00;6208187;23;20075;-82
2023/11/03 10:03:04;;;;;;;77.70;24.43;;;;;;;17.97;97.02;98966.41;6209532;23;20011;-81
2023/11/03 10:05:31;;;;;;;75.05;22.80;;;;;;;18.02;96.62;98960.91;6208034;23;20015;-82
2023/11/03 10:08:01;;;;;;;76.80;24.42;;;;;;;18.18;95.30;98967.66;6210032;23;20008;-82
2023/11/03 10:10:28;;;;;;;79.60;23.35;;;;;;;18.19;93.99;98960.38;6208161;23;20426;-83
2023/11/03 10:12:53;;;;;;;65.37;20.90;;;;;;;18.42;94.28;98967.50;6208169;23;20001;-83
2023/11/03 10:15:20;;;;;;;73.90;23.50;;;;;;;18.33;93.24;98942.31;6208046;23;20004;-81
2023/11/03 10:17:47;;;;;;;77.35;22.55;;;;;;;18.81;91.22;98950.06;6209470;23;20001;-82
2023/11/03 10:20:13;;;;;;;69.60;22.35;;;;;;;18.90;90.15;98933.16;6207993;23;20427;-82
2023/11/03 10:22:42;;;;;;;73.13;22.70;;;;;;;19.14;88.12;98919.41;6209849;23;20008;-82
2023/11/03 10:25:08;;;;;;;63.95;20.83;;;;;;;18.79;90.56;98917.16;6207809;23;20040;-82
2023/11/03 10:27:37;;;;;;;68.78;21.83;;;;;;;19.12;89.00;98927.81;6210110;23;20004;-83
2023/11/03 10:30:07;;;;;;;71.45;23.23;;;;;;;19.52;86.95;98943.44;6210168;23;20005;-82
2023/11/03 10:32:33;;;;;;;69.75;21.65;;;;;;;19.84;84.43;98943.25;6211734;23;20382;-82
2023/11/03 10:35:05;;;;;;;71.75;22.75;;;;;;;19.73;85.25;98939.19;6211947;23;20469;-82
2023/11/03 10:37:35;;;;;;;60.35;20.05;;;;;;;20.32;81.87;98928.25;6210342;23;20485;-83
2023/11/03 10:40:00;;;;;;;60.47;19.05;;;;;;;20.51;80.41;98928.00;6210172;23;20012;-85
2023/11/03 10:42:28;;;;;;;61.03;20.02;;;;;;;20.50;78.87;98937.25;6211960;23;20008;-83
2023/11/03 10:44:56;;;;;;;;;;;;;;;20.61;81.26;98940.50;6212275;23;20339;-83
2023/11/03 10:47:26;;;;;;;53.92;19.63;;;;;;;20.95;78.07;98936.31;6209826;23;19900;-83
2023/11/03 10:50:00;;;;;;;58.33;18.05;;;;;;;20.76;77.91;98906.75;6212117;23;20027;-83
2023/11/03 10:52:28;;;;;;;44.35;17.85;;;;;;;20.75;77.80;98907.88;6210990;23;20085;-82
2023/11/03 10:54:57;;;;;;;;;;;;;;;20.57;78.94;98915.13;6212034;23;20001;-82
2023/11/03 10:57:23;;;;;;;44.22;16.55;;;;;;;20.64;78.33;98901.97;6211024;23;20269;-83
2023/11/03 11:00:03;;;;;;;48.50;16.50;;;;;;;20.66;79.58;98907.88;6211446;23;20004;-84
2023/11/03 11:02:59;;;;;;;41.67;14.00;;;;;;;20.47;81.15;98906.19;6211576;23;20008;-83
2023/11/03 11:05:37;;;;;;;45.22;15.38;;;;;;;20.56;79.58;98897.28;6198111;23;20090;-83
2023/11/03 11:08:04;;;;;;;51.72;17.42;;;;;;;20.68;78.90;98894.81;6209778;23;20082;-83
2023/11/03 11:10:45;;;;;;;42.87;17.97;;;;;;;20.95;77.70;98904.59;6209427;23;20005;-82